Airfield :
LOGIN :

Register | Disclaimer

   EN    FR    IT 

 










Legend :    VFR   Marginal VFR   IFR   Intensive IFR   Very Intensive IFR
Visi :
Ceiling :
>= 8 km
>= 3000ft
5 to 8 km
1000 to 3000 ft
1500m to 5 km
500 to 1000 ft
800 to 1500m
200 to 500 ft
< 800m
< 200 ft
Symbols :   Thunderstorms  Fog  Heavy snow  Heavy precipitations  Wind > 20 kt
SIGMETs :     Misc.  Thunderstorms  Icing  Turbulence  Mountain Waves  Volcanic Ashes







- Airport Elevation : 138 ft
- IATA code : BIO


LEBB - Bilbao

CURRENT METAR :
  • 110000Z AUTO 14005KT 9999 NCD 05/05 Q1027

EXPIRED METARs :
  • 102330Z AUTO VRB01KT 9999 NCD 06/05 Q1027
  • 102300Z AUTO 13006KT 090V150 9999 NCD 06/05 Q1027
  • 102230Z 12005KT 9999 FEW040 07/06 Q1028 NOSIG
  • 102200Z 13006KT 9999 FEW040 07/06 Q1028 NOSIG
  • 102130Z 13003KT 100V160 9999 FEW040 07/06 Q1028 NOSIG

TAF TAF LEBB
Valid from the 11 at 00:00 until the 12 at 00:00 UTC


102300Z 1100/1124 12005KT 9999 FEW030 TX16/1114Z TN03/1106Z
PROB30
TEMPO 1103/1106 3000 BR
BECMG 1111/1114 33010KT
No reported NOTAMs for that airfield.



MET'MAP, your aeronautical weather chart ! - Copyright ORBIFLY December 2007 - Disclaimer

ORBIFLY MET'MAP TEAM :

Programming & Development : Alexandra Zaïnal
Concept & Development : Baudouin d'Aumeries
Co-Development & Prog : Marc-Olivier Méhu
Technical & hardware support : Manuel Goepfert

Contact : metmap@orbifly.com




SOURCES & CREDITS :

   NOAA